createdAt,value
2023-04-26T00:00:00.725Z,3.21
2023-04-26T00:02:27.167Z,3.19
2023-04-26T00:04:53.813Z,3.14
2023-04-26T00:07:20.292Z,3.41
2023-04-26T00:09:46.589Z,3.43
2023-04-26T00:12:12.939Z,3.54
2023-04-26T00:14:39.269Z,3.59
2023-04-26T00:17:05.594Z,3.53
2023-04-26T00:19:31.906Z,3.52
2023-04-26T00:21:58.205Z,3.51
2023-04-26T00:24:24.535Z,3.61
2023-04-26T00:26:50.841Z,3.58
2023-04-26T00:29:17.171Z,3.51
2023-04-26T00:31:43.526Z,3.67
2023-04-26T00:34:09.874Z,3.80
2023-04-26T00:36:36.204Z,3.68
2023-04-26T00:39:02.514Z,3.70
2023-04-26T00:41:28.831Z,3.88
2023-04-26T00:43:55.191Z,3.73
2023-04-26T00:46:21.536Z,3.52
2023-04-26T00:48:47.927Z,3.81
2023-04-26T00:51:14.259Z,3.61
2023-04-26T00:53:40.576Z,3.63
2023-04-26T00:56:06.951Z,3.76
2023-04-26T00:58:33.435Z,3.85
2023-04-26T01:00:59.805Z,3.46
2023-04-26T01:03:26.285Z,3.65
2023-04-26T01:05:52.712Z,3.46
2023-04-26T01:08:19.048Z,3.62
2023-04-26T01:10:45.373Z,3.33
2023-04-26T01:13:11.682Z,3.62
2023-04-26T01:15:38.008Z,3.88
2023-04-26T01:18:04.335Z,4.07
2023-04-26T01:20:30.644Z,4.17
2023-04-26T01:22:57.039Z,3.96
2023-04-26T01:25:23.372Z,3.65
2023-04-26T01:27:49.689Z,3.59
2023-04-26T01:30:16.020Z,3.59
2023-04-26T01:32:42.377Z,3.72
2023-04-26T01:35:08.728Z,3.70
2023-04-26T01:37:35.057Z,3.72
2023-04-26T01:40:01.401Z,3.64
2023-04-26T01:42:27.761Z,3.27
2023-04-26T01:44:54.063Z,3.51
2023-04-26T01:47:20.374Z,3.69
2023-04-26T01:49:46.686Z,3.50
2023-04-26T01:52:13.003Z,3.57
2023-04-26T01:54:39.303Z,3.58
2023-04-26T01:57:05.601Z,3.16
2023-04-26T01:59:31.932Z,3.41
2023-04-26T02:01:58.363Z,3.34
2023-04-26T02:04:24.696Z,3.52
2023-04-26T02:06:51.027Z,3.53
2023-04-26T02:09:17.329Z,3.60
2023-04-26T02:11:43.633Z,3.84
2023-04-26T02:14:09.941Z,3.84
2023-04-26T02:16:36.314Z,4.51
2023-04-26T02:19:02.741Z,4.02
2023-04-26T02:21:30.166Z,3.75
2023-04-26T02:23:56.475Z,4.34
2023-04-26T02:26:22.800Z,3.80
2023-04-26T02:28:49.117Z,5.00
2023-04-26T02:31:15.461Z,6.59
2023-04-26T02:33:41.820Z,5.13
2023-04-26T02:36:08.132Z,4.32
2023-04-26T02:38:34.446Z,4.43
2023-04-26T02:41:00.766Z,6.62
2023-04-26T02:43:27.095Z,5.12
2023-04-26T02:45:53.488Z,6.05
2023-04-26T02:48:19.817Z,6.31
2023-04-26T02:50:46.160Z,7.64
2023-04-26T02:53:12.483Z,6.27
2023-04-26T02:55:38.807Z,4.45
2023-04-26T02:58:05.125Z,3.81
2023-04-26T03:00:31.457Z,3.54
2023-04-26T03:02:57.932Z,3.60
2023-04-26T03:05:24.349Z,3.51
2023-04-26T03:07:50.654Z,3.55
2023-04-26T03:10:16.957Z,3.93
2023-04-26T03:12:43.294Z,4.79
2023-04-26T03:15:09.639Z,4.57
2023-04-26T03:17:35.997Z,4.11
2023-04-26T03:20:02.851Z,3.96
2023-04-26T03:22:29.308Z,3.91
2023-04-26T03:24:55.615Z,3.87
2023-04-26T03:27:21.949Z,3.77
2023-04-26T03:29:48.251Z,3.76
2023-04-26T03:32:14.614Z,3.67
2023-04-26T03:34:40.959Z,3.89
2023-04-26T03:37:07.256Z,4.09
2023-04-26T03:39:33.581Z,4.27
2023-04-26T03:41:59.908Z,4.36
2023-04-26T03:44:26.320Z,4.25
2023-04-26T03:46:52.622Z,4.17
2023-04-26T03:49:18.932Z,4.65
2023-04-26T03:51:45.239Z,4.33
2023-04-26T03:54:11.575Z,4.20
2023-04-26T03:56:37.907Z,4.41
2023-04-26T03:59:04.230Z,4.82
2023-04-26T04:01:30.531Z,4.66
2023-04-26T04:03:57.011Z,4.65
2023-04-26T04:06:23.646Z,4.38
2023-04-26T04:08:50.191Z,4.44
2023-04-26T04:11:16.962Z,4.58
2023-04-26T04:13:43.298Z,4.59
2023-04-26T04:16:09.648Z,4.67
2023-04-26T04:18:35.978Z,4.18
2023-04-26T04:21:02.277Z,4.35
2023-04-26T04:23:28.612Z,4.61
2023-04-26T04:25:54.951Z,4.57
2023-04-26T04:28:21.297Z,4.41
2023-04-26T04:30:47.693Z,4.20
2023-04-26T04:33:14.101Z,4.21
2023-04-26T04:35:40.430Z,4.17
2023-04-26T04:38:06.760Z,3.98
2023-04-26T04:40:33.088Z,4.03
2023-04-26T04:42:59.395Z,4.33
2023-04-26T04:45:25.691Z,4.33
2023-04-26T04:47:52.025Z,4.39
2023-04-26T04:50:18.370Z,4.30
2023-04-26T04:52:44.693Z,4.00
2023-04-26T04:55:11.019Z,3.75
2023-04-26T04:57:37.340Z,3.94
2023-04-26T05:00:03.652Z,3.92
2023-04-26T05:02:30.154Z,4.12
2023-04-26T05:04:56.543Z,3.99
2023-04-26T05:07:24.416Z,4.12
2023-04-26T05:09:50.953Z,3.82
2023-04-26T05:12:17.278Z,4.10
2023-04-26T05:14:43.608Z,4.19
2023-04-26T05:17:09.934Z,4.34
2023-04-26T05:19:36.480Z,4.26
2023-04-26T05:22:02.831Z,4.10
2023-04-26T05:24:29.145Z,4.15
2023-04-26T05:26:55.441Z,4.42
2023-04-26T05:29:21.814Z,4.63
2023-04-26T05:31:48.143Z,4.55
2023-04-26T05:34:14.491Z,4.41
2023-04-26T05:36:40.811Z,4.59
2023-04-26T05:39:07.130Z,4.36
2023-04-26T05:41:33.461Z,4.72
2023-04-26T05:43:59.766Z,4.54
2023-04-26T05:46:26.165Z,4.35
2023-04-26T05:48:52.507Z,4.55
2023-04-26T05:51:18.835Z,5.08
2023-04-26T05:53:45.159Z,4.79
2023-04-26T05:56:11.466Z,5.16
2023-04-26T05:58:37.788Z,4.87
2023-04-26T06:01:04.097Z,4.88
2023-04-26T06:03:30.668Z,5.28
2023-04-26T06:05:57.292Z,5.22
2023-04-26T06:08:23.640Z,5.12
2023-04-26T06:10:49.976Z,5.11
2023-04-26T06:13:16.302Z,4.88
2023-04-26T06:15:42.615Z,4.90
2023-04-26T06:18:09.053Z,5.04
2023-04-26T06:20:35.400Z,5.72
2023-04-26T06:23:01.735Z,5.82
2023-04-26T06:25:28.054Z,5.52
2023-04-26T06:27:54.368Z,5.24
2023-04-26T06:30:20.697Z,5.39
2023-04-26T06:32:47.113Z,5.41
2023-04-26T06:35:13.468Z,5.26
2023-04-26T06:37:39.764Z,5.50
2023-04-26T06:40:06.083Z,5.26
2023-04-26T06:42:32.432Z,5.02
2023-04-26T06:44:58.754Z,5.50
2023-04-26T06:47:25.063Z,5.29
2023-04-26T06:49:51.400Z,5.66
2023-04-26T06:52:18.674Z,5.42
2023-04-26T06:54:56.121Z,5.06
2023-04-26T06:57:23.617Z,5.15
2023-04-26T06:59:50.127Z,5.20
2023-04-26T07:02:16.471Z,5.35
2023-04-26T07:04:43.097Z,5.32
2023-04-26T07:07:11.117Z,5.66
2023-04-26T07:09:39.268Z,5.55
2023-04-26T07:12:05.582Z,5.57
2023-04-26T07:14:31.931Z,5.29
2023-04-26T07:16:58.244Z,5.48
2023-04-26T07:19:24.600Z,5.59
2023-04-26T07:21:50.933Z,5.87
2023-04-26T07:24:17.258Z,5.85
2023-04-26T07:26:43.597Z,6.08
2023-04-26T07:29:09.920Z,6.02
2023-04-26T07:31:36.244Z,5.96
2023-04-26T07:34:02.573Z,5.87
2023-04-26T07:36:28.898Z,5.37
2023-04-26T07:38:55.211Z,5.80
2023-04-26T07:41:21.532Z,6.06
2023-04-26T07:43:47.851Z,5.65
2023-04-26T07:46:14.241Z,5.96
2023-04-26T07:48:40.630Z,5.87
2023-04-26T07:51:06.943Z,5.98
2023-04-26T07:53:33.255Z,5.90
2023-04-26T07:55:59.602Z,5.87
2023-04-26T07:58:25.949Z,5.66
2023-04-26T08:00:52.252Z,6.05
2023-04-26T08:03:18.710Z,6.48
2023-04-26T08:05:45.639Z,6.19
2023-04-26T08:08:12.055Z,5.86
2023-04-26T08:10:38.362Z,5.71
2023-04-26T08:13:04.717Z,6.11
2023-04-26T08:15:31.042Z,6.33
2023-04-26T08:17:57.467Z,6.56
2023-04-26T08:20:23.879Z,6.39
2023-04-26T08:22:50.246Z,6.54
2023-04-26T08:25:16.578Z,6.70
2023-04-26T08:27:42.895Z,6.94
2023-04-26T08:30:09.216Z,6.73
2023-04-26T08:32:35.571Z,6.81
2023-04-26T08:35:01.969Z,6.91
2023-04-26T08:37:29.403Z,6.62
2023-04-26T08:39:55.880Z,6.77
2023-04-26T08:42:22.188Z,6.49
2023-04-26T08:44:48.516Z,6.68
2023-04-26T08:47:14.839Z,6.42
2023-04-26T08:49:41.173Z,6.69
2023-04-26T08:52:07.497Z,6.01
2023-04-26T08:54:33.823Z,5.96
2023-04-26T08:57:00.144Z,5.68
2023-04-26T08:59:26.439Z,5.67
2023-04-26T09:01:52.815Z,6.13
2023-04-26T09:04:19.363Z,5.44
2023-04-26T09:06:45.866Z,5.35
2023-04-26T09:09:12.185Z,5.63
2023-04-26T09:11:38.487Z,5.26
2023-04-26T09:14:04.798Z,5.44
2023-04-26T09:16:31.133Z,5.79
2023-04-26T09:18:57.539Z,5.82
2023-04-26T09:21:23.844Z,5.31
2023-04-26T09:23:50.172Z,5.21
2023-04-26T09:26:16.500Z,5.15
2023-04-26T09:28:42.824Z,5.31
2023-04-26T09:31:09.725Z,4.56
2023-04-26T09:33:36.065Z,4.56
2023-04-26T09:36:02.363Z,4.62
2023-04-26T09:38:28.666Z,4.66
2023-04-26T09:40:55.020Z,4.78
2023-04-26T09:43:21.412Z,4.96
2023-04-26T09:45:47.760Z,4.68
2023-04-26T09:48:14.069Z,4.61
2023-04-26T09:50:40.377Z,4.74
2023-04-26T09:53:06.705Z,4.61
2023-04-26T09:55:35.260Z,4.89
2023-04-26T09:58:02.096Z,4.61
2023-04-26T10:00:28.447Z,4.25
2023-04-26T10:02:54.844Z,4.00
2023-04-26T10:05:21.236Z,4.12
2023-04-26T10:07:47.562Z,3.91
2023-04-26T10:10:14.008Z,4.07
2023-04-26T10:12:40.344Z,3.19
2023-04-26T10:15:06.656Z,2.46
2023-04-26T10:17:32.994Z,3.36
2023-04-26T10:19:59.362Z,3.18
2023-04-26T10:22:25.665Z,3.31
2023-04-26T10:24:51.990Z,3.53
2023-04-26T10:27:18.316Z,3.42
2023-04-26T10:29:44.641Z,3.33
2023-04-26T10:32:11.011Z,3.78
2023-04-26T10:34:37.333Z,3.46
2023-04-26T10:37:03.653Z,3.27
2023-04-26T10:39:29.964Z,3.49
2023-04-26T10:41:56.289Z,3.83
2023-04-26T10:44:22.598Z,3.52
2023-04-26T10:46:48.928Z,3.26
2023-04-26T10:49:15.248Z,3.25
2023-04-26T10:51:41.565Z,3.24
2023-04-26T10:54:07.885Z,3.15
2023-04-26T10:56:34.213Z,3.05
2023-04-26T10:59:00.554Z,3.18
2023-04-26T11:01:26.887Z,3.06
2023-04-26T11:03:53.489Z,3.26
2023-04-26T11:06:20.093Z,3.39
2023-04-26T11:08:46.413Z,3.29
2023-04-26T11:11:12.740Z,3.49
2023-04-26T11:13:39.079Z,3.63
2023-04-26T11:16:05.480Z,3.60
2023-04-26T11:18:31.878Z,3.46
2023-04-26T11:20:58.221Z,3.34
2023-04-26T11:23:24.673Z,3.14
2023-04-26T11:25:50.987Z,3.24
2023-04-26T11:28:17.303Z,3.52
2023-04-26T11:30:43.604Z,3.11
2023-04-26T11:33:09.930Z,3.16
2023-04-26T11:35:36.281Z,3.31
2023-04-26T11:38:02.609Z,3.57
2023-04-26T11:40:29.004Z,3.46
2023-04-26T11:42:55.325Z,3.22
2023-04-26T11:45:21.663Z,3.02
2023-04-26T11:47:48.042Z,3.21
2023-04-26T11:50:14.362Z,3.54
2023-04-26T11:52:40.662Z,3.49
2023-04-26T11:55:06.970Z,3.76
2023-04-26T11:57:33.368Z,3.73
2023-04-26T11:59:59.682Z,3.60
2023-04-26T12:02:26.153Z,3.61
2023-04-26T12:04:52.718Z,3.40
2023-04-26T12:07:19.144Z,3.34
2023-04-26T12:09:45.469Z,3.24
2023-04-26T12:12:11.807Z,3.28
2023-04-26T12:14:38.137Z,2.96
2023-04-26T12:17:04.532Z,2.68
2023-04-26T12:19:30.911Z,2.81
2023-04-26T12:21:57.295Z,2.89
2023-04-26T12:24:23.598Z,2.89
2023-04-26T12:26:49.912Z,2.76
2023-04-26T12:29:16.219Z,2.95
2023-04-26T12:31:42.568Z,2.97
2023-04-26T12:34:08.929Z,2.53
2023-04-26T12:36:35.273Z,3.02
2023-04-26T12:39:01.611Z,2.76
2023-04-26T12:41:27.947Z,2.95
2023-04-26T12:43:54.254Z,2.85
2023-04-26T12:46:20.619Z,2.79
2023-04-26T12:48:46.969Z,3.13
2023-04-26T12:51:13.289Z,2.83
2023-04-26T12:53:39.609Z,3.14
2023-04-26T12:56:06.128Z,2.72
2023-04-26T12:58:32.450Z,2.80
2023-04-26T13:00:58.785Z,2.94
2023-04-26T13:03:25.236Z,3.01
2023-04-26T13:05:51.642Z,2.84
2023-04-26T13:08:18.015Z,2.80
2023-04-26T13:10:44.333Z,3.06
2023-04-26T13:13:10.673Z,3.25
2023-04-26T13:15:37.006Z,3.26
2023-04-26T13:18:03.362Z,3.05
2023-04-26T13:20:30.950Z,2.98
2023-04-26T13:22:57.425Z,3.38
2023-04-26T13:25:23.756Z,2.80
2023-04-26T13:27:50.069Z,2.66
2023-04-26T13:30:16.372Z,2.69
2023-04-26T13:32:42.714Z,3.08
2023-04-26T13:35:09.167Z,3.00
2023-04-26T13:37:35.505Z,2.70
2023-04-26T13:40:01.852Z,2.94
2023-04-26T13:42:28.187Z,2.75
2023-04-26T13:44:54.539Z,3.04
2023-04-26T13:47:20.923Z,2.81
2023-04-26T13:49:47.322Z,2.80
2023-04-26T13:52:13.660Z,3.16
2023-04-26T13:54:40.000Z,3.12
2023-04-26T13:57:06.348Z,2.95
2023-04-26T13:59:32.665Z,3.19
2023-04-26T14:01:59.330Z,2.84
2023-04-26T14:04:26.094Z,2.66
2023-04-26T14:06:52.569Z,2.57
2023-04-26T14:09:18.892Z,2.58
2023-04-26T14:11:49.327Z,2.51
2023-04-26T14:14:20.465Z,2.71
2023-04-26T14:16:46.798Z,2.61
2023-04-26T14:19:13.125Z,2.34
2023-04-26T14:21:39.438Z,2.44
2023-04-26T14:24:05.758Z,2.30
2023-04-26T14:26:32.088Z,2.49
2023-04-26T14:28:58.398Z,2.65
2023-04-26T14:31:24.848Z,2.71
2023-04-26T14:33:51.197Z,2.78
2023-04-26T14:36:17.503Z,2.65
2023-04-26T14:38:43.802Z,2.69
2023-04-26T14:41:10.144Z,2.45
2023-04-26T14:43:36.480Z,2.22
2023-04-26T14:46:02.872Z,2.51
2023-04-26T14:48:29.220Z,2.67
2023-04-26T14:50:55.526Z,2.79
2023-04-26T14:53:21.849Z,2.65
2023-04-26T14:55:48.169Z,2.52
2023-04-26T14:58:14.621Z,2.44
2023-04-26T15:00:41.001Z,2.40
2023-04-26T15:03:07.446Z,2.51
2023-04-26T15:05:33.864Z,2.39
2023-04-26T15:08:00.328Z,2.39
2023-04-26T15:10:26.659Z,2.13
2023-04-26T15:12:52.981Z,2.22
2023-04-26T15:15:19.316Z,2.33
2023-04-26T15:17:45.679Z,2.25
2023-04-26T15:20:12.042Z,2.20
2023-04-26T15:22:39.025Z,2.27
2023-04-26T15:25:05.504Z,2.05
2023-04-26T15:27:31.809Z,2.05
2023-04-26T15:29:58.134Z,2.22
2023-04-26T15:32:24.496Z,2.15
2023-04-26T15:34:50.871Z,2.20
2023-04-26T15:37:17.211Z,2.10
2023-04-26T15:39:43.547Z,2.08
2023-04-26T15:42:09.929Z,4.26
2023-04-26T15:44:36.256Z,5.62
2023-04-26T15:47:02.618Z,3.52
2023-04-26T15:49:28.979Z,4.53
2023-04-26T15:51:55.309Z,3.35
2023-04-26T15:54:21.650Z,3.26
2023-04-26T15:56:48.007Z,2.72
2023-04-26T15:59:14.334Z,2.35
2023-04-26T16:01:40.668Z,2.05
2023-04-26T16:04:07.163Z,2.17
2023-04-26T16:06:33.672Z,2.14
2023-04-26T16:09:00.006Z,2.24
2023-04-26T16:11:26.378Z,2.25
2023-04-26T16:13:52.911Z,2.11
2023-04-26T16:16:19.324Z,2.39
2023-04-26T16:18:45.718Z,2.35
2023-04-26T16:21:12.020Z,2.33
2023-04-26T16:23:38.322Z,2.18
2023-04-26T16:26:04.646Z,2.09
2023-04-26T16:28:30.948Z,2.28
2023-04-26T16:30:57.295Z,2.39
2023-04-26T16:33:23.993Z,2.22
2023-04-26T16:35:50.647Z,2.19
2023-04-26T16:38:16.970Z,2.18
2023-04-26T16:40:43.301Z,2.42
2023-04-26T16:43:09.637Z,2.38
2023-04-26T16:45:35.941Z,2.17
2023-04-26T16:48:02.267Z,2.27
2023-04-26T16:50:28.611Z,2.19
2023-04-26T16:52:54.945Z,2.42
2023-04-26T16:55:21.260Z,2.30
2023-04-26T16:57:47.571Z,2.23
2023-04-26T17:00:13.895Z,2.24
2023-04-26T17:02:40.423Z,2.21
2023-04-26T17:05:07.080Z,2.50
2023-04-26T17:07:33.461Z,2.41
2023-04-26T17:09:59.780Z,2.77
2023-04-26T17:12:26.104Z,2.39
2023-04-26T17:14:52.407Z,2.62
2023-04-26T17:17:18.726Z,2.44
2023-04-26T17:19:45.036Z,2.40
2023-04-26T17:22:11.365Z,2.54
2023-04-26T17:24:37.672Z,2.33
2023-04-26T17:27:03.982Z,2.42
2023-04-26T17:29:30.310Z,2.36
2023-04-26T17:31:56.694Z,2.21
2023-04-26T17:34:23.075Z,2.30
2023-04-26T17:36:49.434Z,2.28
2023-04-26T17:39:15.747Z,2.45
2023-04-26T17:41:42.065Z,2.21
2023-04-26T17:44:08.373Z,2.27
2023-04-26T17:46:34.706Z,2.13
2023-04-26T17:49:01.039Z,2.34
2023-04-26T17:51:27.407Z,3.10
2023-04-26T17:53:53.740Z,3.26
2023-04-26T17:56:20.101Z,3.34
2023-04-26T17:58:46.415Z,3.18
2023-04-26T18:01:12.749Z,2.94
2023-04-26T18:03:39.274Z,2.95
2023-04-26T18:06:05.758Z,2.81
2023-04-26T18:08:32.094Z,2.53
2023-04-26T18:10:58.419Z,2.31
2023-04-26T18:13:24.744Z,2.41
2023-04-26T18:15:51.067Z,2.29
2023-04-26T18:18:17.537Z,2.33
2023-04-26T18:20:43.981Z,2.36
2023-04-26T18:23:10.315Z,2.42
2023-04-26T18:25:36.653Z,2.53
2023-04-26T18:28:02.975Z,2.32
2023-04-26T18:30:29.288Z,2.44
2023-04-26T18:32:55.678Z,2.42
2023-04-26T18:35:22.073Z,2.40
2023-04-26T18:37:48.427Z,2.44
2023-04-26T18:40:14.753Z,2.44
2023-04-26T18:42:41.089Z,2.43
2023-04-26T18:45:07.417Z,2.79
2023-04-26T18:47:33.753Z,2.97
2023-04-26T18:50:00.189Z,2.73
2023-04-26T18:52:26.532Z,2.61
2023-04-26T18:54:52.868Z,2.52
2023-04-26T18:57:19.172Z,2.76
2023-04-26T18:59:45.497Z,2.90
2023-04-26T19:02:11.925Z,2.89
2023-04-26T19:04:38.429Z,3.07
2023-04-26T19:07:04.894Z,3.03
2023-04-26T19:09:35.133Z,2.77
2023-04-26T19:12:09.495Z,2.75
2023-04-26T19:14:35.808Z,2.52
2023-04-26T19:17:02.148Z,2.51
2023-04-26T19:19:28.461Z,2.16
2023-04-26T19:21:54.771Z,2.18
2023-04-26T19:24:21.085Z,2.22
2023-04-26T19:26:47.397Z,2.28
2023-04-26T19:29:13.697Z,2.07
2023-04-26T19:31:40.062Z,2.07
2023-04-26T19:34:06.406Z,2.16
2023-04-26T19:36:32.746Z,2.43
2023-04-26T19:38:59.082Z,2.42
2023-04-26T19:41:25.389Z,2.72
2023-04-26T19:43:51.765Z,2.66
2023-04-26T19:46:18.174Z,2.44
2023-04-26T19:48:44.586Z,2.22
2023-04-26T19:51:10.921Z,2.14
2023-04-26T19:53:37.233Z,2.16
2023-04-26T19:56:03.568Z,2.34
2023-04-26T19:58:29.945Z,2.33
2023-04-26T20:00:56.299Z,2.41
2023-04-26T20:03:22.748Z,2.36
2023-04-26T20:05:49.223Z,2.39
2023-04-26T20:08:15.534Z,2.30
2023-04-26T20:10:41.867Z,2.23
2023-04-26T20:13:08.192Z,2.20
2023-04-26T20:15:34.515Z,2.24
2023-04-26T20:18:00.876Z,2.35
2023-04-26T20:20:27.245Z,3.21
2023-04-26T20:22:53.575Z,3.30
2023-04-26T20:25:20.035Z,3.12
2023-04-26T20:27:46.438Z,2.61
2023-04-26T20:30:12.753Z,2.49
2023-04-26T20:32:39.109Z,2.21
2023-04-26T20:35:05.458Z,2.19
2023-04-26T20:37:31.782Z,2.27
2023-04-26T20:39:58.103Z,2.24
2023-04-26T20:42:24.414Z,2.32
2023-04-26T20:44:50.745Z,2.40
2023-04-26T20:47:17.080Z,3.07
2023-04-26T20:49:43.512Z,2.74
2023-04-26T20:52:09.855Z,2.40
2023-04-26T20:54:36.158Z,2.61
2023-04-26T20:57:02.476Z,2.32
2023-04-26T20:59:28.787Z,2.38
2023-04-26T21:01:55.113Z,2.10
2023-04-26T21:04:21.695Z,2.02
2023-04-26T21:06:48.349Z,2.09
2023-04-26T21:09:14.671Z,2.17
2023-04-26T21:11:40.981Z,2.16
2023-04-26T21:14:07.291Z,2.07
2023-04-26T21:16:33.594Z,1.99
2023-04-26T21:18:59.919Z,2.08
2023-04-26T21:21:28.103Z,2.00
2023-04-26T21:23:54.646Z,2.19
2023-04-26T21:26:20.968Z,2.19
2023-04-26T21:28:47.264Z,2.16
2023-04-26T21:31:13.595Z,2.14
2023-04-26T21:33:39.970Z,2.35
2023-04-26T21:36:06.304Z,3.04
2023-04-26T21:38:32.622Z,4.01
2023-04-26T21:40:58.948Z,4.47
2023-04-26T21:43:25.281Z,3.86
2023-04-26T21:45:51.594Z,4.16
2023-04-26T21:48:17.907Z,3.40
2023-04-26T21:50:44.216Z,2.69
2023-04-26T21:53:10.517Z,2.63
2023-04-26T21:55:36.873Z,2.57
2023-04-26T21:58:03.223Z,2.66
2023-04-26T22:00:29.570Z,2.39
2023-04-26T22:02:56.058Z,2.28
2023-04-26T22:05:22.477Z,2.13
2023-04-26T22:07:48.777Z,2.10
2023-04-26T22:10:15.095Z,2.10
2023-04-26T22:12:41.421Z,2.14
2023-04-26T22:15:07.737Z,2.11
2023-04-26T22:17:34.128Z,1.94
2023-04-26T22:20:00.475Z,2.07
2023-04-26T22:22:26.798Z,1.86
2023-04-26T22:24:53.135Z,1.85
2023-04-26T22:27:19.444Z,2.07
2023-04-26T22:29:45.758Z,2.13
2023-04-26T22:32:12.200Z,2.15
2023-04-26T22:34:38.591Z,1.98
2023-04-26T22:37:19.778Z,2.19
2023-04-26T22:39:46.976Z,1.94
2023-04-26T22:42:13.284Z,1.92
2023-04-26T22:44:39.591Z,2.18
2023-04-26T22:47:05.900Z,2.04
2023-04-26T22:49:32.229Z,2.13
2023-04-26T22:52:07.773Z,2.17
2023-04-26T22:54:38.270Z,2.21
2023-04-26T22:57:04.588Z,2.27
2023-04-26T22:59:30.899Z,2.08
2023-04-26T23:01:57.233Z,2.17
2023-04-26T23:04:23.600Z,2.21
2023-04-26T23:06:49.929Z,2.19
2023-04-26T23:09:16.264Z,2.30
2023-04-26T23:11:42.592Z,2.25
2023-04-26T23:14:08.909Z,2.31
2023-04-26T23:16:35.305Z,2.31
2023-04-26T23:19:01.652Z,2.38
2023-04-26T23:21:27.975Z,2.19
2023-04-26T23:23:54.283Z,2.10
2023-04-26T23:26:20.583Z,2.05
2023-04-26T23:28:46.901Z,2.11
2023-04-26T23:31:13.221Z,2.15
2023-04-26T23:33:39.533Z,2.18
2023-04-26T23:36:05.855Z,2.14
2023-04-26T23:38:32.197Z,1.99
2023-04-26T23:40:58.506Z,1.95
2023-04-26T23:43:24.817Z,1.93
2023-04-26T23:45:51.392Z,1.80
2023-04-26T23:48:17.756Z,1.97
2023-04-26T23:50:44.085Z,1.92
2023-04-26T23:53:10.398Z,1.93
2023-04-26T23:55:36.717Z,1.93
2023-04-26T23:58:03.022Z,1.96
